sensor_id;sensor_type;location;lat;lon;timestamp;pressure;altitude;pressure_sealevel;temperature;humidity
12951;BME280;6540;50.858;7.232;2023-01-29T00:01:58;51943.31;;;-142.34;28.41
12951;BME280;6540;50.858;7.232;2023-01-29T00:04:23;51937.25;;;-142.34;28.69
12951;BME280;6540;50.858;7.232;2023-01-29T00:06:49;51943.31;;;-142.34;28.71
12951;BME280;6540;50.858;7.232;2023-01-29T00:09:14;51967.50;;;-142.34;28.95
12951;BME280;6540;50.858;7.232;2023-01-29T00:11:39;51951.38;;;-142.34;29.01
12951;BME280;6540;50.858;7.232;2023-01-29T00:14:05;51979.63;;;-142.34;29.26
12951;BME280;6540;50.858;7.232;2023-01-29T00:16:31;51923.13;;;-142.34;28.27
12951;BME280;6540;50.858;7.232;2023-01-29T00:18:56;51943.31;;;-142.34;28.70
12951;BME280;6540;50.858;7.232;2023-01-29T00:21:22;51947.34;;;-142.34;29.03
12951;BME280;6540;50.858;7.232;2023-01-29T00:23:48;51941.28;;;-142.34;29.62
12951;BME280;6540;50.858;7.232;2023-01-29T00:26:14;51955.41;;;-142.34;29.68
12951;BME280;6540;50.858;7.232;2023-01-29T00:28:40;51957.44;;;-142.34;29.73
12951;BME280;6540;50.858;7.232;2023-01-29T00:31:20;51933.22;;;-142.34;28.87
12951;BME280;6540;50.858;7.232;2023-01-29T00:33:46;51951.38;;;-142.34;29.50
12951;BME280;6540;50.858;7.232;2023-01-29T00:36:14;51896.91;;;-142.34;29.34
12951;BME280;6540;50.858;7.232;2023-01-29T00:38:39;51959.44;;;-142.34;29.01
12951;BME280;6540;50.858;7.232;2023-01-29T00:41:13;51955.41;;;-142.34;29.00
12951;BME280;6540;50.858;7.232;2023-01-29T00:43:58;51959.44;;;-142.34;29.20
12951;BME280;6540;50.858;7.232;2023-01-29T00:46:43;51935.25;;;-142.34;29.32
12951;BME280;6540;50.858;7.232;2023-01-29T00:49:08;51941.28;;;-142.34;29.48
12951;BME280;6540;50.858;7.232;2023-01-29T00:51:34;51939.28;;;-142.34;30.43
12951;BME280;6540;50.858;7.232;2023-01-29T00:54:00;51890.84;;;-142.34;31.52
12951;BME280;6540;50.858;7.232;2023-01-29T00:56:29;51923.13;;;-142.34;33.03
12951;BME280;6540;50.858;7.232;2023-01-29T00:58:55;51909.00;;;-142.34;31.35
12951;BME280;6540;50.858;7.232;2023-01-29T01:01:21;51911.03;;;-142.34;31.56
12951;BME280;6540;50.858;7.232;2023-01-29T01:04:06;51870.69;;;-142.34;30.64
12951;BME280;6540;50.858;7.232;2023-01-29T01:06:32;51947.34;;;-142.34;29.65
12951;BME280;6540;50.858;7.232;2023-01-29T01:08:57;51959.44;;;-142.34;28.73
12951;BME280;6540;50.858;7.232;2023-01-29T01:11:41;51955.41;;;-142.34;28.83
12951;BME280;6540;50.858;7.232;2023-01-29T01:14:07;51925.16;;;-142.34;29.37
12951;BME280;6540;50.858;7.232;2023-01-29T01:16:32;51927.16;;;-142.34;29.23
12951;BME280;6540;50.858;7.232;2023-01-29T01:18:58;51951.38;;;-142.34;28.47
12951;BME280;6540;50.858;7.232;2023-01-29T01:21:23;51951.38;;;-142.34;30.76
12951;BME280;6540;50.858;7.232;2023-01-29T01:23:48;51902.97;;;-142.34;30.51
12951;BME280;6540;50.858;7.232;2023-01-29T01:26:16;51933.22;;;-142.34;30.25
12951;BME280;6540;50.858;7.232;2023-01-29T01:28:41;51955.41;;;-142.34;30.27
12951;BME280;6540;50.858;7.232;2023-01-29T01:31:09;51943.31;;;-142.34;31.40
12951;BME280;6540;50.858;7.232;2023-01-29T01:33:34;51959.44;;;-142.34;31.91
12951;BME280;6540;50.858;7.232;2023-01-29T01:36:01;51878.75;;;-142.34;31.03
12951;BME280;6540;50.858;7.232;2023-01-29T01:38:30;51886.81;;;-142.34;30.21
12951;BME280;6540;50.858;7.232;2023-01-29T01:40:56;51941.28;;;-142.34;30.35
12951;BME280;6540;50.858;7.232;2023-01-29T01:43:21;51927.16;;;-142.34;30.12
12951;BME280;6540;50.858;7.232;2023-01-29T01:45:47;51931.19;;;-142.34;30.22
12951;BME280;6540;50.858;7.232;2023-01-29T01:48:21;51927.16;;;-142.34;29.31
12951;BME280;6540;50.858;7.232;2023-01-29T01:50:59;51915.06;;;-142.34;30.95
12951;BME280;6540;50.858;7.232;2023-01-29T01:53:42;51902.97;;;-142.34;31.75
12951;BME280;6540;50.858;7.232;2023-01-29T01:56:22;51894.88;;;-142.34;32.33
12951;BME280;6540;50.858;7.232;2023-01-29T01:58:51;51898.94;;;-142.34;31.69
12951;BME280;6540;50.858;7.232;2023-01-29T02:01:19;51939.28;;;-142.34;30.42
12951;BME280;6540;50.858;7.232;2023-01-29T02:04:12;51907.00;;;-142.34;30.21
12951;BME280;6540;50.858;7.232;2023-01-29T02:07:00;51882.78;;;-142.34;30.19
12951;BME280;6540;50.858;7.232;2023-01-29T02:10:09;51919.09;;;-142.34;29.87
12951;BME280;6540;50.858;7.232;2023-01-29T02:12:37;51927.16;;;-142.34;30.82
12951;BME280;6540;50.858;7.232;2023-01-29T02:15:03;51915.06;;;-142.34;30.33
12951;BME280;6540;50.858;7.232;2023-01-29T02:17:29;51929.19;;;-142.34;30.54
12951;BME280;6540;50.858;7.232;2023-01-29T02:20:22;51902.97;;;-142.34;29.75
12951;BME280;6540;50.858;7.232;2023-01-29T02:28:38;51894.88;;;-142.34;29.52
12951;BME280;6540;50.858;7.232;2023-01-29T02:34:09;51880.78;;;-142.34;30.65
12951;BME280;6540;50.858;7.232;2023-01-29T02:39:40;51937.25;;;-142.34;30.63
12951;BME280;6540;50.858;7.232;2023-01-29T02:42:28;51900.94;;;-142.34;30.70
12951;BME280;6540;50.858;7.232;2023-01-29T02:47:59;51957.44;;;-142.34;30.60
12951;BME280;6540;50.858;7.232;2023-01-29T02:53:26;51890.84;;;-142.34;29.77
12951;BME280;6540;50.858;7.232;2023-01-29T02:56:02;51898.94;;;-142.34;29.07
12951;BME280;6540;50.858;7.232;2023-01-29T02:58:41;51931.19;;;-142.34;30.09
12951;BME280;6540;50.858;7.232;2023-01-29T03:01:14;51931.19;;;-142.34;30.45
12951;BME280;6540;50.858;7.232;2023-01-29T03:03:45;51915.06;;;-142.34;29.64
12951;BME280;6540;50.858;7.232;2023-01-29T03:06:23;51911.03;;;-142.34;29.76
12951;BME280;6540;50.858;7.232;2023-01-29T03:08:56;51929.19;;;-142.34;29.55
12951;BME280;6540;50.858;7.232;2023-01-29T03:11:28;51919.09;;;-142.34;29.21
12951;BME280;6540;50.858;7.232;2023-01-29T03:14:03;51898.94;;;-142.34;29.74
12951;BME280;6540;50.858;7.232;2023-01-29T03:16:35;51941.28;;;-142.34;29.59
12951;BME280;6540;50.858;7.232;2023-01-29T03:19:10;51925.16;;;-142.34;30.15
12951;BME280;6540;50.858;7.232;2023-01-29T03:21:40;51919.09;;;-142.34;29.42
12951;BME280;6540;50.858;7.232;2023-01-29T03:24:35;51902.97;;;-142.34;30.59
12951;BME280;6540;50.858;7.232;2023-01-29T03:27:26;51894.88;;;-142.34;30.46
12951;BME280;6540;50.858;7.232;2023-01-29T03:30:13;51913.03;;;-142.34;29.97
12951;BME280;6540;50.858;7.232;2023-01-29T03:33:03;51935.25;;;-142.34;29.63
12951;BME280;6540;50.858;7.232;2023-01-29T03:35:33;51927.16;;;-142.34;28.71
12951;BME280;6540;50.858;7.232;2023-01-29T03:38:09;51919.09;;;-142.34;28.12
12951;BME280;6540;50.858;7.232;2023-01-29T03:40:46;51955.41;;;-142.34;28.75
12951;BME280;6540;50.858;7.232;2023-01-29T03:46:17;51943.31;;;-142.34;29.00
12951;BME280;6540;50.858;7.232;2023-01-29T03:48:58;51975.59;;;-142.34;29.59
12951;BME280;6540;50.858;7.232;2023-01-29T03:52:01;51963.47;;;-142.34;28.44
12951;BME280;6540;50.858;7.232;2023-01-29T03:54:39;51915.06;;;-142.34;29.21
12951;BME280;6540;50.858;7.232;2023-01-29T03:57:21;51949.34;;;-142.34;29.34
12951;BME280;6540;50.858;7.232;2023-01-29T04:02:19;51971.53;;;-142.34;29.19
12951;BME280;6540;50.858;7.232;2023-01-29T04:04:54;51955.41;;;-142.34;28.73
12951;BME280;6540;50.858;7.232;2023-01-29T04:07:21;51931.19;;;-142.34;28.60
12951;BME280;6540;50.858;7.232;2023-01-29T04:12:35;51943.31;;;-142.34;28.61
12951;BME280;6540;50.858;7.232;2023-01-29T04:15:02;51876.72;;;-142.34;28.46
12951;BME280;6540;50.858;7.232;2023-01-29T04:17:34;51953.41;;;-142.34;28.27
12951;BME280;6540;50.858;7.232;2023-01-29T04:20:02;51947.34;;;-142.34;28.33
12951;BME280;6540;50.858;7.232;2023-01-29T04:22:33;51951.38;;;-142.34;29.44
12951;BME280;6540;50.858;7.232;2023-01-29T04:25:02;51939.28;;;-142.34;29.78
12951;BME280;6540;50.858;7.232;2023-01-29T04:27:49;51947.34;;;-142.34;29.28
12951;BME280;6540;50.858;7.232;2023-01-29T04:33:20;51955.41;;;-142.34;29.97
12951;BME280;6540;50.858;7.232;2023-01-29T04:38:27;51925.16;;;-142.34;31.21
12951;BME280;6540;50.858;7.232;2023-01-29T04:41:06;51935.25;;;-142.34;28.79
12951;BME280;6540;50.858;7.232;2023-01-29T04:43:40;51931.19;;;-142.34;28.59
12951;BME280;6540;50.858;7.232;2023-01-29T04:46:16;51933.22;;;-142.34;29.13
12951;BME280;6540;50.858;7.232;2023-01-29T04:48:58;51909.00;;;-142.34;28.80
12951;BME280;6540;50.858;7.232;2023-01-29T04:57:27;51979.63;;;-142.34;29.59
12951;BME280;6540;50.858;7.232;2023-01-29T05:02:40;51921.13;;;-142.34;30.00
12951;BME280;6540;50.858;7.232;2023-01-29T05:05:08;51898.94;;;-142.34;30.04
12951;BME280;6540;50.858;7.232;2023-01-29T05:07:36;51939.28;;;-142.34;30.88
12951;BME280;6540;50.858;7.232;2023-01-29T05:10:07;51931.19;;;-142.34;30.38
12951;BME280;6540;50.858;7.232;2023-01-29T05:12:34;51915.06;;;-142.34;29.56
12951;BME280;6540;50.858;7.232;2023-01-29T05:15:02;51907.00;;;-142.34;30.09
12951;BME280;6540;50.858;7.232;2023-01-29T05:17:29;51947.34;;;-142.34;29.17
12951;BME280;6540;50.858;7.232;2023-01-29T05:19:55;51909.00;;;-142.34;29.31
12951;BME280;6540;50.858;7.232;2023-01-29T05:22:21;51898.94;;;-142.34;29.26
12951;BME280;6540;50.858;7.232;2023-01-29T05:24:50;51943.31;;;-142.34;29.38
12951;BME280;6540;50.858;7.232;2023-01-29T05:27:18;51955.41;;;-142.34;28.34
12951;BME280;6540;50.858;7.232;2023-01-29T05:30:03;51921.13;;;-142.34;27.64
12951;BME280;6540;50.858;7.232;2023-01-29T05:32:28;51959.44;;;-142.34;29.05
12951;BME280;6540;50.858;7.232;2023-01-29T05:34:54;51975.59;;;-142.34;28.92
12951;BME280;6540;50.858;7.232;2023-01-29T05:37:19;51937.25;;;-142.34;29.60
12951;BME280;6540;50.858;7.232;2023-01-29T05:39:45;51955.41;;;-142.34;29.95
12951;BME280;6540;50.858;7.232;2023-01-29T05:42:10;51959.44;;;-142.34;29.83
12951;BME280;6540;50.858;7.232;2023-01-29T05:44:38;51951.38;;;-142.34;30.07
12951;BME280;6540;50.858;7.232;2023-01-29T05:47:04;51911.03;;;-142.34;30.30
12951;BME280;6540;50.858;7.232;2023-01-29T05:49:29;51888.84;;;-142.34;30.02
12951;BME280;6540;50.858;7.232;2023-01-29T05:51:55;51959.44;;;-142.34;28.36
12951;BME280;6540;50.858;7.232;2023-01-29T05:54:20;51961.47;;;-142.34;28.44
12951;BME280;6540;50.858;7.232;2023-01-29T05:56:45;51979.63;;;-142.34;28.19
12951;BME280;6540;50.858;7.232;2023-01-29T05:59:11;51987.69;;;-142.34;27.37
12951;BME280;6540;50.858;7.232;2023-01-29T06:01:37;51967.50;;;-142.34;27.48
12951;BME280;6540;50.858;7.232;2023-01-29T06:04:02;51985.66;;;-142.34;27.77
12951;BME280;6540;50.858;7.232;2023-01-29T06:06:30;51955.41;;;-142.34;28.00
12951;BME280;6540;50.858;7.232;2023-01-29T06:08:57;51947.34;;;-142.34;28.09
12951;BME280;6540;50.858;7.232;2023-01-29T06:11:22;51975.59;;;-142.34;27.85
12951;BME280;6540;50.858;7.232;2023-01-29T06:13:47;51947.34;;;-142.34;28.72
12951;BME280;6540;50.858;7.232;2023-01-29T06:16:15;51927.16;;;-142.34;28.61
12951;BME280;6540;50.858;7.232;2023-01-29T06:18:40;51939.28;;;-142.34;28.82
12951;BME280;6540;50.858;7.232;2023-01-29T06:21:08;51973.56;;;-142.34;28.84
12951;BME280;6540;50.858;7.232;2023-01-29T06:23:35;51927.16;;;-142.34;29.74
12951;BME280;6540;50.858;7.232;2023-01-29T06:26:08;51919.09;;;-142.34;29.55
12951;BME280;6540;50.858;7.232;2023-01-29T06:28:34;51923.13;;;-142.34;30.07
12951;BME280;6540;50.858;7.232;2023-01-29T06:31:02;51939.28;;;-142.34;29.58
12951;BME280;6540;50.858;7.232;2023-01-29T06:33:27;51919.09;;;-142.34;30.22
12951;BME280;6540;50.858;7.232;2023-01-29T06:36:00;51949.34;;;-142.34;29.36
12951;BME280;6540;50.858;7.232;2023-01-29T06:38:27;51931.19;;;-142.34;29.41
12951;BME280;6540;50.858;7.232;2023-01-29T06:40:53;51921.13;;;-142.34;29.89
12951;BME280;6540;50.858;7.232;2023-01-29T06:43:19;51947.34;;;-142.34;28.89
12951;BME280;6540;50.858;7.232;2023-01-29T06:45:50;51933.22;;;-142.34;29.80
12951;BME280;6540;50.858;7.232;2023-01-29T06:48:16;51963.47;;;-142.34;29.54
12951;BME280;6540;50.858;7.232;2023-01-29T06:50:42;51911.03;;;-142.34;30.55
12951;BME280;6540;50.858;7.232;2023-01-29T06:53:07;51939.28;;;-142.34;29.65
12951;BME280;6540;50.858;7.232;2023-01-29T06:55:33;51951.38;;;-142.34;30.84
12951;BME280;6540;50.858;7.232;2023-01-29T06:57:58;51935.25;;;-142.34;31.50
12951;BME280;6540;50.858;7.232;2023-01-29T07:00:24;51898.94;;;-142.34;30.77
12951;BME280;6540;50.858;7.232;2023-01-29T07:02:50;51915.06;;;-142.34;31.40
12951;BME280;6540;50.858;7.232;2023-01-29T07:05:15;51919.09;;;-142.34;30.55
12951;BME280;6540;50.858;7.232;2023-01-29T07:07:40;51907.00;;;-142.34;31.11
12951;BME280;6540;50.858;7.232;2023-01-29T07:10:06;51909.00;;;-142.34;31.35
12951;BME280;6540;50.858;7.232;2023-01-29T07:12:31;51919.09;;;-142.34;29.82
12951;BME280;6540;50.858;7.232;2023-01-29T07:14:57;51919.09;;;-142.34;31.46
12951;BME280;6540;50.858;7.232;2023-01-29T07:17:22;51933.22;;;-142.34;31.56
12951;BME280;6540;50.858;7.232;2023-01-29T07:19:48;51925.16;;;-142.34;31.20
12951;BME280;6540;50.858;7.232;2023-01-29T07:22:15;51949.34;;;-142.34;31.02
12951;BME280;6540;50.858;7.232;2023-01-29T07:24:41;51931.19;;;-142.34;30.34
12951;BME280;6540;50.858;7.232;2023-01-29T07:27:06;51917.06;;;-142.34;29.98
12951;BME280;6540;50.858;7.232;2023-01-29T07:29:32;51927.16;;;-142.34;30.26
12951;BME280;6540;50.858;7.232;2023-01-29T07:31:57;51927.16;;;-142.34;30.63
12951;BME280;6540;50.858;7.232;2023-01-29T07:34:22;51902.97;;;-142.34;29.92
12951;BME280;6540;50.858;7.232;2023-01-29T07:36:48;51955.41;;;-142.34;28.68
12951;BME280;6540;50.858;7.232;2023-01-29T07:39:13;51953.41;;;-142.34;30.33
12951;BME280;6540;50.858;7.232;2023-01-29T07:41:38;51955.41;;;-142.34;31.28
12951;BME280;6540;50.858;7.232;2023-01-29T07:44:04;51913.03;;;-142.34;32.31
12951;BME280;6540;50.858;7.232;2023-01-29T07:46:29;51890.84;;;-142.34;30.64
12951;BME280;6540;50.858;7.232;2023-01-29T07:48:54;51943.31;;;-142.34;29.27
12951;BME280;6540;50.858;7.232;2023-01-29T07:51:20;51955.41;;;-142.34;29.60
12951;BME280;6540;50.858;7.232;2023-01-29T07:53:46;51943.31;;;-142.34;28.79
12951;BME280;6540;50.858;7.232;2023-01-29T07:56:11;51959.44;;;-142.34;28.65
12951;BME280;6540;50.858;7.232;2023-01-29T07:58:37;51963.47;;;-142.34;30.06
12951;BME280;6540;50.858;7.232;2023-01-29T08:01:06;51971.53;;;-142.34;30.71
12951;BME280;6540;50.858;7.232;2023-01-29T08:03:32;51955.41;;;-142.34;29.51
12951;BME280;6540;50.858;7.232;2023-01-29T08:05:57;51995.75;;;-142.34;29.06
12951;BME280;6540;50.858;7.232;2023-01-29T08:08:22;51947.34;;;-142.34;30.14
12951;BME280;6540;50.858;7.232;2023-01-29T08:10:48;51961.47;;;-142.34;30.60
12951;BME280;6540;50.858;7.232;2023-01-29T08:13:13;51955.41;;;-142.34;29.57
12951;BME280;6540;50.858;7.232;2023-01-29T08:15:42;51953.41;;;-142.34;29.77
12951;BME280;6540;50.858;7.232;2023-01-29T08:18:09;51939.28;;;-142.34;31.07
12951;BME280;6540;50.858;7.232;2023-01-29T08:20:34;51947.34;;;-142.34;30.84
12951;BME280;6540;50.858;7.232;2023-01-29T08:23:01;51931.19;;;-142.34;29.27
12951;BME280;6540;50.858;7.232;2023-01-29T08:25:28;51963.47;;;-142.34;29.61
12951;BME280;6540;50.858;7.232;2023-01-29T08:27:55;51963.47;;;-142.34;28.85
12951;BME280;6540;50.858;7.232;2023-01-29T08:30:22;51973.56;;;-142.34;28.29
12951;BME280;6540;50.858;7.232;2023-01-29T08:32:47;51977.59;;;-142.34;28.14
12951;BME280;6540;50.858;7.232;2023-01-29T08:35:12;51967.50;;;-142.34;28.32
12951;BME280;6540;50.858;7.232;2023-01-29T08:37:38;51985.66;;;-142.34;29.24
12951;BME280;6540;50.858;7.232;2023-01-29T08:40:03;52011.91;;;-142.34;29.84
12951;BME280;6540;50.858;7.232;2023-01-29T08:42:29;51939.28;;;-142.34;29.63
12951;BME280;6540;50.858;7.232;2023-01-29T08:44:56;51997.78;;;-142.34;28.57
12951;BME280;6540;50.858;7.232;2023-01-29T08:47:21;51983.66;;;-142.34;28.65
12951;BME280;6540;50.858;7.232;2023-01-29T08:49:46;51983.66;;;-142.34;29.61
12951;BME280;6540;50.858;7.232;2023-01-29T08:52:11;51987.69;;;-142.34;29.46
12951;BME280;6540;50.858;7.232;2023-01-29T08:54:37;51977.59;;;-142.34;28.83
12951;BME280;6540;50.858;7.232;2023-01-29T08:57:02;51991.72;;;-142.34;29.68
12951;BME280;6540;50.858;7.232;2023-01-29T08:59:27;52026.03;;;-142.34;29.24
12951;BME280;6540;50.858;7.232;2023-01-29T09:01:53;51985.66;;;-142.34;28.55
12951;BME280;6540;50.858;7.232;2023-01-29T09:04:18;51955.41;;;-142.34;29.36
12951;BME280;6540;50.858;7.232;2023-01-29T09:06:43;52038.13;;;-142.34;28.39
12951;BME280;6540;50.858;7.232;2023-01-29T09:09:09;51951.38;;;-142.34;28.67
12951;BME280;6540;50.858;7.232;2023-01-29T09:11:35;51999.78;;;-142.34;28.22
12951;BME280;6540;50.858;7.232;2023-01-29T09:14:02;52005.84;;;-142.34;29.01
12951;BME280;6540;50.858;7.232;2023-01-29T09:16:27;51987.69;;;-142.34;29.47
12951;BME280;6540;50.858;7.232;2023-01-29T09:18:52;52001.81;;;-142.34;29.03
12951;BME280;6540;50.858;7.232;2023-01-29T09:21:18;51997.78;;;-142.34;28.49
12951;BME280;6540;50.858;7.232;2023-01-29T09:23:44;52001.81;;;-142.34;28.56
12951;BME280;6540;50.858;7.232;2023-01-29T09:26:17;51977.59;;;-142.34;28.16
12951;BME280;6540;50.858;7.232;2023-01-29T09:28:42;52034.09;;;-142.34;28.19
12951;BME280;6540;50.858;7.232;2023-01-29T09:31:07;51997.78;;;-142.34;28.47
12951;BME280;6540;50.858;7.232;2023-01-29T09:33:33;52003.81;;;-142.34;29.02
12951;BME280;6540;50.858;7.232;2023-01-29T09:35:58;51995.75;;;-142.34;29.30
12951;BME280;6540;50.858;7.232;2023-01-29T09:38:23;51963.47;;;-142.34;28.12
12951;BME280;6540;50.858;7.232;2023-01-29T09:43:25;51979.63;;;-142.34;27.96
12951;BME280;6540;50.858;7.232;2023-01-29T09:45:59;52007.84;;;-142.34;27.83
12951;BME280;6540;50.858;7.232;2023-01-29T09:48:29;51991.72;;;-142.34;27.86
12951;BME280;6540;50.858;7.232;2023-01-29T09:50:59;51979.63;;;-142.34;27.80
12951;BME280;6540;50.858;7.232;2023-01-29T09:53:38;51961.47;;;-142.34;27.80
12951;BME280;6540;50.858;7.232;2023-01-29T09:56:11;51979.63;;;-142.34;29.10
12951;BME280;6540;50.858;7.232;2023-01-29T09:58:40;51983.66;;;-142.34;28.56
12951;BME280;6540;50.858;7.232;2023-01-29T10:04:04;51971.53;;;-142.34;28.22
12951;BME280;6540;50.858;7.232;2023-01-29T10:12:25;51983.66;;;-142.34;28.12
12951;BME280;6540;50.858;7.232;2023-01-29T10:25:22;51963.47;;;-142.34;27.75
12951;BME280;6540;50.858;7.232;2023-01-29T10:27:50;51959.44;;;-142.34;28.70
12951;BME280;6540;50.858;7.232;2023-01-29T10:30:38;51999.78;;;-142.34;27.63
12951;BME280;6540;50.858;7.232;2023-01-29T10:33:09;51987.69;;;-142.34;28.40
12951;BME280;6540;50.858;7.232;2023-01-29T10:35:40;51997.78;;;-142.34;28.73
12951;BME280;6540;50.858;7.232;2023-01-29T10:38:26;51983.66;;;-142.34;27.87
12951;BME280;6540;50.858;7.232;2023-01-29T10:43:48;52005.84;;;-142.34;27.61
12951;BME280;6540;50.858;7.232;2023-01-29T11:00:02;51947.34;;;-142.34;27.30
12951;BME280;6540;50.858;7.232;2023-01-29T11:02:34;51995.75;;;-142.34;27.53
12951;BME280;6540;50.858;7.232;2023-01-29T11:04:59;52019.97;;;-142.34;27.17
12951;BME280;6540;50.858;7.232;2023-01-29T11:07:25;51993.75;;;-142.34;27.56
12951;BME280;6540;50.858;7.232;2023-01-29T11:10:18;51987.69;;;-142.34;27.35
12951;BME280;6540;50.858;7.232;2023-01-29T11:12:45;51991.72;;;-142.34;26.94
12951;BME280;6540;50.858;7.232;2023-01-29T11:15:30;51993.75;;;-142.34;26.68
12951;BME280;6540;50.858;7.232;2023-01-29T11:20:28;51955.41;;;-142.34;27.90
12951;BME280;6540;50.858;7.232;2023-01-29T11:22:54;51973.56;;;-142.34;27.33
12951;BME280;6540;50.858;7.232;2023-01-29T11:25:24;51959.44;;;-142.34;27.73
12951;BME280;6540;50.858;7.232;2023-01-29T11:27:57;51973.56;;;-142.34;27.97
12951;BME280;6540;50.858;7.232;2023-01-29T11:30:31;51949.34;;;-142.34;28.58
12951;BME280;6540;50.858;7.232;2023-01-29T11:33:05;51987.69;;;-142.34;27.63
12951;BME280;6540;50.858;7.232;2023-01-29T11:35:32;51993.75;;;-142.34;28.39
12951;BME280;6540;50.858;7.232;2023-01-29T11:38:26;51931.19;;;-142.34;28.18
12951;BME280;6540;50.858;7.232;2023-01-29T11:41:04;51987.69;;;-142.34;28.71
12951;BME280;6540;50.858;7.232;2023-01-29T11:43:30;51985.66;;;-142.34;28.35
12951;BME280;6540;50.858;7.232;2023-01-29T11:45:59;51987.69;;;-142.34;27.74
12951;BME280;6540;50.858;7.232;2023-01-29T11:48:43;51987.69;;;-142.34;27.55
12951;BME280;6540;50.858;7.232;2023-01-29T11:51:11;51987.69;;;-142.34;27.34
12951;BME280;6540;50.858;7.232;2023-01-29T11:53:49;51981.63;;;-142.34;27.21
12951;BME280;6540;50.858;7.232;2023-01-29T11:56:31;51943.31;;;-142.34;27.51
12951;BME280;6540;50.858;7.232;2023-01-29T11:58:58;51997.78;;;-142.34;27.54
12951;BME280;6540;50.858;7.232;2023-01-29T12:01:39;52015.94;;;-142.34;27.07
12951;BME280;6540;50.858;7.232;2023-01-29T12:04:19;51963.47;;;-142.34;26.92
12951;BME280;6540;50.858;7.232;2023-01-29T12:06:47;51985.66;;;-142.34;26.97
12951;BME280;6540;50.858;7.232;2023-01-29T12:09:18;51981.63;;;-142.34;27.71
12951;BME280;6540;50.858;7.232;2023-01-29T12:11:45;52001.81;;;-142.34;26.92
12951;BME280;6540;50.858;7.232;2023-01-29T12:14:39;51963.47;;;-142.34;27.58
12951;BME280;6540;50.858;7.232;2023-01-29T12:17:11;51953.41;;;-142.34;27.72
12951;BME280;6540;50.858;7.232;2023-01-29T12:19:50;51999.78;;;-142.34;27.15
12951;BME280;6540;50.858;7.232;2023-01-29T12:22:26;51963.47;;;-142.34;27.19
12951;BME280;6540;50.858;7.232;2023-01-29T12:25:10;51989.69;;;-142.34;26.65
12951;BME280;6540;50.858;7.232;2023-01-29T12:27:48;51997.78;;;-142.34;27.00
12951;BME280;6540;50.858;7.232;2023-01-29T12:30:28;51951.38;;;-142.34;27.22
12951;BME280;6540;50.858;7.232;2023-01-29T12:33:02;51963.47;;;-142.34;26.80
12951;BME280;6540;50.858;7.232;2023-01-29T12:38:33;51999.78;;;-142.34;27.24
12951;BME280;6540;50.858;7.232;2023-01-29T12:41:05;51987.69;;;-142.34;27.30
12951;BME280;6540;50.858;7.232;2023-01-29T12:43:38;51977.59;;;-142.34;26.73
12951;BME280;6540;50.858;7.232;2023-01-29T12:46:19;51959.44;;;-142.34;27.21
12951;BME280;6540;50.858;7.232;2023-01-29T12:48:46;51955.41;;;-142.34;27.10
12951;BME280;6540;50.858;7.232;2023-01-29T12:51:28;51965.50;;;-142.34;26.85
12951;BME280;6540;50.858;7.232;2023-01-29T12:54:12;51935.25;;;-142.34;26.47
12951;BME280;6540;50.858;7.232;2023-01-29T12:56:42;51981.63;;;-142.34;26.26
12951;BME280;6540;50.858;7.232;2023-01-29T12:59:20;51979.63;;;-142.34;26.74
12951;BME280;6540;50.858;7.232;2023-01-29T13:02:16;51991.72;;;-142.34;26.22
12951;BME280;6540;50.858;7.232;2023-01-29T13:04:47;51999.78;;;-142.34;27.74
12951;BME280;6540;50.858;7.232;2023-01-29T13:07:18;51947.34;;;-142.34;26.86
12951;BME280;6540;50.858;7.232;2023-01-29T13:09:50;51979.63;;;-142.34;27.04
12951;BME280;6540;50.858;7.232;2023-01-29T13:12:19;51949.34;;;-142.34;27.18
12951;BME280;6540;50.858;7.232;2023-01-29T13:18:05;51963.47;;;-142.34;27.13
12951;BME280;6540;50.858;7.232;2023-01-29T13:20:27;51977.59;;;-142.34;27.15
12951;BME280;6540;50.858;7.232;2023-01-29T13:22:57;51975.59;;;-142.34;26.56
12951;BME280;6540;50.858;7.232;2023-01-29T13:25:25;51963.47;;;-142.34;26.27
12951;BME280;6540;50.858;7.232;2023-01-29T13:27:51;51943.31;;;-142.34;26.39
12951;BME280;6540;50.858;7.232;2023-01-29T13:30:24;51941.28;;;-142.34;26.58
12951;BME280;6540;50.858;7.232;2023-01-29T13:32:51;51993.75;;;-142.34;26.48
12951;BME280;6540;50.858;7.232;2023-01-29T13:35:20;51977.59;;;-142.34;26.80
12951;BME280;6540;50.858;7.232;2023-01-29T13:37:49;51967.50;;;-142.34;26.61
12951;BME280;6540;50.858;7.232;2023-01-29T13:40:24;51999.78;;;-142.34;27.05
12951;BME280;6540;50.858;7.232;2023-01-29T13:42:51;51971.53;;;-142.34;26.00
12951;BME280;6540;50.858;7.232;2023-01-29T13:47:47;51951.38;;;-142.34;26.17
12951;BME280;6540;50.858;7.232;2023-01-29T13:52:52;51931.19;;;-142.34;26.37
12951;BME280;6540;50.858;7.232;2023-01-29T14:05:56;51975.59;;;-142.34;26.31
12951;BME280;6540;50.858;7.232;2023-01-29T14:13:47;51983.66;;;-142.34;26.15
12951;BME280;6540;50.858;7.232;2023-01-29T14:18:57;51977.59;;;-142.34;25.85
12951;BME280;6540;50.858;7.232;2023-01-29T14:21:26;51965.50;;;-142.34;25.94
12951;BME280;6540;50.858;7.232;2023-01-29T14:23:58;51947.34;;;-142.34;26.02
12951;BME280;6540;50.858;7.232;2023-01-29T14:26:32;51971.53;;;-142.34;25.75
12951;BME280;6540;50.858;7.232;2023-01-29T14:34:29;51975.59;;;-142.34;25.60
12951;BME280;6540;50.858;7.232;2023-01-29T14:37:00;51959.44;;;-142.34;25.75
12951;BME280;6540;50.858;7.232;2023-01-29T14:39:36;51985.66;;;-142.34;25.78
12951;BME280;6540;50.858;7.232;2023-01-29T14:47:19;51931.19;;;-142.34;25.47
12951;BME280;6540;50.858;7.232;2023-01-29T14:49:53;51923.13;;;-142.34;25.95
12951;BME280;6540;50.858;7.232;2023-01-29T14:52:31;51955.41;;;-142.34;26.06
12951;BME280;6540;50.858;7.232;2023-01-29T14:55:02;51943.31;;;-142.34;25.74
12951;BME280;6540;50.858;7.232;2023-01-29T14:57:30;51963.47;;;-142.34;26.61
12951;BME280;6540;50.858;7.232;2023-01-29T14:59:59;51955.41;;;-142.34;26.27
12951;BME280;6540;50.858;7.232;2023-01-29T15:02:31;51947.34;;;-142.34;26.28
12951;BME280;6540;50.858;7.232;2023-01-29T15:05:05;51947.34;;;-142.34;25.68
12951;BME280;6540;50.858;7.232;2023-01-29T15:07:36;51975.59;;;-142.34;27.21
12951;BME280;6540;50.858;7.232;2023-01-29T15:10:27;51923.13;;;-142.34;27.12